createdAt,value
2023-03-22T00:02:01.022Z,99274.38
2023-03-22T00:07:41.472Z,99258.00
2023-03-22T00:10:18.108Z,99273.91
2023-03-22T00:15:36.952Z,99261.97
2023-03-22T00:18:19.253Z,99267.44
2023-03-22T00:24:15.094Z,99247.72
2023-03-22T00:26:49.419Z,99262.88
2023-03-22T00:29:19.324Z,99260.63
2023-03-22T00:31:48.182Z,99248.13
2023-03-22T00:34:36.768Z,99254.16
2023-03-22T00:37:26.889Z,99229.22
2023-03-22T00:40:18.270Z,99251.16
2023-03-22T00:42:50.930Z,99221.66
2023-03-22T00:45:38.403Z,99244.13
2023-03-22T00:48:25.928Z,99235.03
2023-03-22T00:50:58.925Z,99229.56
2023-03-22T00:53:26.258Z,99236.16
2023-03-22T00:55:54.192Z,99215.59
2023-03-22T00:58:21.362Z,99230.22
2023-03-22T01:00:48.258Z,99222.06
2023-03-22T01:03:14.984Z,99208.16
2023-03-22T01:05:42.109Z,99209.78
2023-03-22T01:08:10.257Z,99212.66
2023-03-22T01:10:38.592Z,99204.59
2023-03-22T01:13:06.256Z,99203.97
2023-03-22T01:15:32.942Z,99206.72
2023-03-22T01:17:59.596Z,99210.19
2023-03-22T01:20:27.041Z,99205.59
2023-03-22T01:22:53.722Z,99197.16
2023-03-22T01:25:21.798Z,99191.69
2023-03-22T01:27:48.417Z,99200.66
2023-03-22T01:30:14.960Z,99194.53
2023-03-22T01:32:41.748Z,99192.81
2023-03-22T01:35:09.241Z,99190.84
2023-03-22T01:37:36.158Z,99181.44
2023-03-22T01:40:02.838Z,99179.44
2023-03-22T01:42:30.954Z,99179.84
2023-03-22T01:45:37.541Z,99184.41
2023-03-22T01:48:13.323Z,99173.88
2023-03-22T01:50:42.493Z,99171.88
2023-03-22T01:53:12.620Z,99160.84
2023-03-22T01:55:39.815Z,99164.78
2023-03-22T01:58:08.060Z,99164.09
2023-03-22T02:00:34.605Z,99142.22
2023-03-22T02:03:01.445Z,99147.41
2023-03-22T02:05:31.028Z,99145.78
2023-03-22T02:07:57.666Z,99139.47
2023-03-22T02:10:27.288Z,99152.81
2023-03-22T02:13:12.861Z,99148.59
2023-03-22T02:15:43.586Z,99150.66
2023-03-22T02:18:26.214Z,99140.06
2023-03-22T02:21:28.139Z,99138.19
2023-03-22T02:24:34.063Z,99129.94
2023-03-22T02:27:22.624Z,99137.91
2023-03-22T02:30:00.816Z,99121.88
2023-03-22T02:33:00.129Z,99120.16
2023-03-22T02:36:00.096Z,99117.94
2023-03-22T02:39:05.174Z,99119.56
2023-03-22T02:41:44.041Z,99112.47
2023-03-22T02:44:22.489Z,99112.28
2023-03-22T02:46:56.533Z,99102.63
2023-03-22T02:49:33.056Z,99100.88
2023-03-22T02:52:07.051Z,99090.63
2023-03-22T02:54:43.330Z,99102.03
2023-03-22T02:57:16.873Z,99094.59
2023-03-22T02:59:44.945Z,99094.50
2023-03-22T03:02:15.191Z,99084.00
2023-03-22T03:04:46.288Z,99093.16
2023-03-22T03:07:17.097Z,99102.03
2023-03-22T03:09:45.549Z,99083.91
2023-03-22T03:12:18.310Z,99083.75
2023-03-22T03:14:45.042Z,99082.94
2023-03-22T03:17:22.779Z,99088.25
2023-03-22T03:20:00.306Z,99083.81
2023-03-22T03:22:40.448Z,99085.63
2023-03-22T03:25:15.599Z,99093.84
2023-03-22T03:27:48.870Z,99090.16
2023-03-22T03:30:19.701Z,99083.09
2023-03-22T03:32:50.280Z,99084.06
2023-03-22T03:35:21.875Z,99085.84
2023-03-22T03:37:51.256Z,99080.28
2023-03-22T03:40:23.461Z,99079.13
2023-03-22T03:42:53.525Z,99074.16
2023-03-22T03:45:20.587Z,99066.41
2023-03-22T03:47:49.143Z,99063.97
2023-03-22T03:50:16.505Z,99065.81
2023-03-22T03:52:43.363Z,99077.47
2023-03-22T03:55:10.347Z,99063.72
2023-03-22T03:57:38.269Z,99072.09
2023-03-22T04:00:06.302Z,99070.03
2023-03-22T04:02:32.898Z,99070.13
2023-03-22T04:04:59.595Z,99068.72
2023-03-22T04:07:26.256Z,99066.75
2023-03-22T04:09:52.793Z,99067.91
2023-03-22T04:12:19.505Z,99082.13
2023-03-22T04:14:47.398Z,99076.94
2023-03-22T04:17:14.015Z,99069.00
2023-03-22T04:19:40.878Z,99068.53
2023-03-22T04:22:07.689Z,99071.97
2023-03-22T04:24:34.283Z,99075.06
2023-03-22T04:27:00.842Z,99066.56
2023-03-22T04:29:27.822Z,99063.00
2023-03-22T04:31:55.699Z,99070.78
2023-03-22T04:34:22.312Z,99070.31
2023-03-22T04:36:48.874Z,99070.50
2023-03-22T04:39:15.471Z,99064.66
2023-03-22T04:41:42.105Z,99056.06
2023-03-22T04:44:08.887Z,99047.13
2023-03-22T04:46:36.690Z,99052.22
2023-03-22T04:49:05.368Z,99048.81
2023-03-22T04:51:32.208Z,99036.69
2023-03-22T04:53:59.180Z,99046.09
2023-03-22T04:56:25.855Z,99044.25
2023-03-22T04:58:52.414Z,99045.81
2023-03-22T05:01:18.960Z,99056.88
2023-03-22T05:03:45.709Z,99054.50
2023-03-22T05:06:14.338Z,99055.63
2023-03-22T05:08:41.438Z,99061.94
2023-03-22T05:11:10.379Z,99061.56
2023-03-22T05:13:37.243Z,99058.47
2023-03-22T05:16:04.674Z,99048.63
2023-03-22T05:18:31.757Z,99051.84
2023-03-22T05:20:59.808Z,99046.03
2023-03-22T05:23:27.894Z,99042.06
2023-03-22T05:25:54.500Z,99048.91
2023-03-22T05:28:21.524Z,99051.16
2023-03-22T05:30:49.533Z,99053.22
2023-03-22T05:33:16.226Z,99055.47
2023-03-22T05:35:43.174Z,99040.25
2023-03-22T05:38:11.843Z,99043.63
2023-03-22T05:40:40.162Z,99050.06
2023-03-22T05:43:06.930Z,99046.38
2023-03-22T05:45:36.430Z,99049.56
2023-03-22T05:48:03.166Z,99048.97
2023-03-22T05:50:29.767Z,99046.75
2023-03-22T05:52:56.343Z,99045.63
2023-03-22T05:55:23.126Z,99050.59
2023-03-22T05:57:51.144Z,99044.34
2023-03-22T06:00:19.221Z,99042.59
2023-03-22T06:02:48.187Z,99031.03
2023-03-22T06:05:16.509Z,99040.38
2023-03-22T06:07:43.564Z,99038.88
2023-03-22T06:10:12.908Z,99035.19
2023-03-22T06:12:40.296Z,99038.38
2023-03-22T06:15:19.438Z,99032.59
2023-03-22T06:17:46.112Z,99025.75
2023-03-22T06:20:15.730Z,99038.56
2023-03-22T06:22:46.164Z,99045.13
2023-03-22T06:25:13.924Z,99050.06
2023-03-22T06:27:40.478Z,99043.28
2023-03-22T06:30:21.530Z,99056.84
2023-03-22T06:32:48.039Z,99049.91
2023-03-22T06:35:25.041Z,99055.09
2023-03-22T06:38:03.807Z,99056.91
2023-03-22T06:40:36.433Z,99023.44
2023-03-22T06:43:06.381Z,99041.59
2023-03-22T06:46:08.538Z,99039.47
2023-03-22T06:49:11.155Z,99014.84
2023-03-22T06:51:48.972Z,99024.13
2023-03-22T06:54:35.694Z,99030.91
2023-03-22T06:57:05.873Z,99027.09
2023-03-22T06:59:43.108Z,99017.56
2023-03-22T07:02:53.246Z,99034.22
2023-03-22T07:05:35.905Z,99014.59
2023-03-22T07:08:50.809Z,99019.31
2023-03-22T07:15:08.735Z,99019.41
2023-03-22T07:53:54.649Z,98977.00
2023-03-22T07:56:21.282Z,98990.81
2023-03-22T08:00:02.321Z,98985.06
2023-03-22T08:02:42.384Z,98986.47
2023-03-22T08:05:18.545Z,98983.81
2023-03-22T08:07:45.168Z,98992.91
2023-03-22T08:10:13.229Z,98998.56
2023-03-22T08:12:39.861Z,98994.31
2023-03-22T08:15:07.999Z,98994.50
2023-03-22T08:17:34.757Z,98993.22
2023-03-22T08:20:01.741Z,99012.34
2023-03-22T08:22:28.425Z,99008.84
2023-03-22T08:24:55.459Z,99010.31
2023-03-22T08:27:23.551Z,99008.72
2023-03-22T08:29:50.124Z,99017.19
2023-03-22T08:32:17.855Z,99014.19
2023-03-22T08:34:44.856Z,99013.63
2023-03-22T08:37:12.524Z,99019.53
2023-03-22T08:39:39.203Z,99013.09
2023-03-22T08:42:06.044Z,99018.94
2023-03-22T08:44:34.013Z,99022.63
2023-03-22T08:47:02.179Z,99028.75
2023-03-22T08:49:29.528Z,99012.69
2023-03-22T08:51:56.283Z,99016.38
2023-03-22T08:54:22.876Z,99015.84
2023-03-22T08:56:49.604Z,99011.47
2023-03-22T09:06:38.568Z,98986.06
2023-03-22T09:09:06.653Z,99001.41
2023-03-22T09:11:33.213Z,99010.44
2023-03-22T09:15:23.805Z,98995.41
2023-03-22T09:17:50.609Z,99000.88
2023-03-22T09:20:17.244Z,99002.53
2023-03-22T09:22:43.959Z,98991.41
2023-03-22T09:25:12.957Z,98997.66
2023-03-22T09:27:39.941Z,99006.13
2023-03-22T09:30:07.701Z,98996.19
2023-03-22T09:32:34.621Z,98983.19
2023-03-22T09:35:01.517Z,98997.44
2023-03-22T09:37:28.064Z,98994.91
2023-03-22T09:39:54.651Z,98975.72
2023-03-22T09:42:31.262Z,98989.16
2023-03-22T09:45:00.571Z,98978.53
2023-03-22T09:47:44.208Z,98979.69
2023-03-22T09:50:13.813Z,98981.41
2023-03-22T09:52:40.761Z,98994.84
2023-03-22T09:55:22.690Z,98992.81
2023-03-22T09:57:58.680Z,98976.13
2023-03-22T10:00:33.512Z,98990.06
2023-03-22T10:03:12.294Z,98987.50
2023-03-22T10:05:43.535Z,98973.38
2023-03-22T10:17:00.509Z,98946.25
2023-03-22T10:50:30.052Z,98971.97
2023-03-22T10:53:03.053Z,98972.84
2023-03-22T10:55:30.358Z,98974.22
2023-03-22T10:58:10.704Z,98978.41
2023-03-22T11:00:41.220Z,98981.75
2023-03-22T11:03:08.943Z,98968.34
2023-03-22T11:05:37.118Z,98971.97
2023-03-22T11:08:04.188Z,98962.72
2023-03-22T11:10:32.160Z,98962.69
2023-03-22T11:13:16.752Z,98961.78
2023-03-22T11:15:51.596Z,98963.03
2023-03-22T11:18:19.413Z,98969.38
2023-03-22T11:20:59.162Z,98959.38
2023-03-22T11:23:26.559Z,98962.22
2023-03-22T11:25:56.928Z,98955.28
2023-03-22T11:28:28.076Z,98967.34
2023-03-22T11:31:00.889Z,98970.13
2023-03-22T11:33:28.073Z,98961.75
2023-03-22T11:35:57.634Z,98970.16
2023-03-22T11:38:29.171Z,98969.56
2023-03-22T11:40:59.026Z,98954.97
2023-03-22T11:43:27.939Z,98968.69
2023-03-22T11:45:57.868Z,98954.31
2023-03-22T11:48:29.985Z,98965.69
2023-03-22T11:51:03.964Z,98964.69
2023-03-22T11:53:33.870Z,98960.72
2023-03-22T11:56:03.013Z,98965.16
2023-03-22T11:58:44.700Z,98950.28
2023-03-22T12:01:16.703Z,98953.47
2023-03-22T12:03:49.054Z,98943.44
2023-03-22T12:09:07.709Z,98939.66
2023-03-22T12:11:39.233Z,98945.81
2023-03-22T12:14:12.282Z,98942.53
2023-03-22T12:16:46.529Z,98945.28
2023-03-22T12:19:22.590Z,98942.47
2023-03-22T12:21:52.011Z,98946.81
2023-03-22T12:24:32.080Z,98928.75
2023-03-22T12:27:15.205Z,98926.69
2023-03-22T12:30:02.401Z,98919.66
2023-03-22T12:33:02.577Z,98924.72
2023-03-22T12:35:35.806Z,98928.00
2023-03-22T12:38:42.195Z,98931.56
2023-03-22T12:41:32.980Z,98944.31
2023-03-22T12:44:06.648Z,98923.94
2023-03-22T12:46:40.021Z,98939.63
2023-03-22T12:49:18.085Z,98938.41
2023-03-22T12:51:46.763Z,98944.75
2023-03-22T12:54:16.923Z,98946.81
2023-03-22T12:56:48.070Z,98944.31
2023-03-22T12:59:18.454Z,98948.19
2023-03-22T13:01:47.526Z,98956.00
2023-03-22T13:04:31.970Z,98959.75
2023-03-22T13:07:10.351Z,98954.72
2023-03-22T13:09:41.335Z,98952.28
2023-03-22T13:12:30.000Z,98954.78
2023-03-22T13:15:04.201Z,98954.84
2023-03-22T13:17:45.297Z,98961.16
2023-03-22T13:20:26.445Z,98954.97
2023-03-22T13:23:22.165Z,98954.16
2023-03-22T13:26:01.757Z,98950.38
2023-03-22T13:28:29.984Z,98946.22
2023-03-22T13:30:58.955Z,98950.50
2023-03-22T13:33:28.545Z,98951.63
2023-03-22T13:35:57.671Z,98947.75
2023-03-22T13:38:28.954Z,98944.06
2023-03-22T13:41:09.033Z,98935.06
2023-03-22T13:43:43.978Z,98936.78
2023-03-22T13:46:32.555Z,98926.13
2023-03-22T13:49:32.857Z,98937.34
2023-03-22T13:52:02.100Z,98933.75
2023-03-22T13:54:36.221Z,98930.66
2023-03-22T13:57:04.366Z,98938.47
2023-03-22T13:59:56.997Z,98927.44
2023-03-22T14:02:34.431Z,98929.56
2023-03-22T14:05:07.324Z,98918.34
2023-03-22T14:07:41.805Z,98915.97
2023-03-22T14:10:14.455Z,98921.38
2023-03-22T14:12:51.418Z,98913.88
2023-03-22T14:15:21.515Z,98910.50
2023-03-22T14:17:52.486Z,98903.59
2023-03-22T14:20:22.697Z,98906.13
